TVC weather

Cherry Capital Airport
Traverse City, Michigan, United States

Public forecast

Using degrees Fahrenheit for public forecast. Weather courtesy of forecast.io.

METAR (pilot weather report)

Retrieved 2019/04/18 22:24 UTC (6 minutes ago):

KTVC 182224Z 32011KT 1 1/2SM -DZ BR OVC009 04/03 A2962 RMK AO2 SFC VIS 2 DZB06 P0000 T00440033

TAF (pilot weather forecast)

Retrieved 2019/04/18 18:22 UTC (4 hours ago):

TAF KTVC 181720Z 1818/1918 33005KT 4SM -SHRA BR OVC008 FM190000 34009KT P6SM VCSH OVC012 FM190400 35010G18KT P6SM OVC015 FM191600 01013G22KT P6SM SCT040